createdAt,value
2023-02-05T00:00:19.923Z,16.67
2023-02-05T00:02:48.667Z,16.45
2023-02-05T00:05:17.227Z,18.15
2023-02-05T00:14:38.466Z,15.30
2023-02-05T00:17:07.074Z,15.00
2023-02-05T00:19:35.732Z,11.52
2023-02-05T00:22:04.384Z,12.85
2023-02-05T00:24:33.548Z,13.05
2023-02-05T00:27:01.976Z,12.10
2023-02-05T00:29:30.543Z,13.82
2023-02-05T00:32:00.370Z,15.50
2023-02-05T00:34:28.910Z,14.07
2023-02-05T00:36:57.461Z,14.43
2023-02-05T00:39:25.892Z,14.80
2023-02-05T00:41:54.795Z,13.65
2023-02-05T00:44:23.382Z,14.48
2023-02-05T00:46:51.776Z,13.75
2023-02-05T00:50:07.764Z,14.65
2023-02-05T00:56:04.546Z,13.88
2023-02-05T00:58:33.342Z,14.35
2023-02-05T01:01:01.944Z,12.95
2023-02-05T01:03:30.529Z,12.50
2023-02-05T01:05:59.604Z,12.13
2023-02-05T01:08:28.071Z,12.38
2023-02-05T01:10:57.118Z,12.65
2023-02-05T01:13:55.659Z,11.25
2023-02-05T01:16:25.511Z,12.18
2023-02-05T01:18:56.738Z,13.20
2023-02-05T01:21:26.043Z,11.05
2023-02-05T01:23:55.009Z,11.23
2023-02-05T01:26:23.583Z,10.90
2023-02-05T01:28:51.967Z,10.48
2023-02-05T01:31:22.193Z,12.25
2023-02-05T01:33:52.149Z,11.07
2023-02-05T01:36:20.702Z,10.80
2023-02-05T01:38:49.283Z,10.73
2023-02-05T01:41:17.761Z,8.45
2023-02-05T01:44:06.779Z,10.65
2023-02-05T01:46:37.042Z,9.93
2023-02-05T01:49:09.101Z,10.98
2023-02-05T01:51:38.889Z,9.43
2023-02-05T01:54:08.977Z,11.10
2023-02-05T01:56:41.524Z,10.50
2023-02-05T01:59:13.715Z,10.73
2023-02-05T02:01:43.350Z,10.75
2023-02-05T02:04:18.111Z,10.88
2023-02-05T02:06:46.867Z,10.70
2023-02-05T02:09:15.496Z,9.27
2023-02-05T02:11:45.264Z,9.90
2023-02-05T02:14:16.347Z,9.35
2023-02-05T02:16:44.963Z,8.35
2023-02-05T02:19:23.912Z,9.02
2023-02-05T02:22:25.117Z,8.77
2023-02-05T02:25:23.697Z,8.15
2023-02-05T02:31:31.904Z,9.07
2023-02-05T02:34:06.640Z,8.75
2023-02-05T02:36:38.498Z,8.13
2023-02-05T02:39:12.396Z,9.80
2023-02-05T02:41:47.039Z,8.45
2023-02-05T02:44:21.072Z,9.63
2023-02-05T02:46:58.137Z,10.05
2023-02-05T02:49:31.701Z,8.05
2023-02-05T02:52:04.005Z,8.77
2023-02-05T02:54:35.039Z,8.88
2023-02-05T02:57:05.924Z,7.88
2023-02-05T02:59:37.612Z,7.97
2023-02-05T03:02:10.730Z,9.43
2023-02-05T03:04:41.936Z,8.20
2023-02-05T03:07:16.376Z,8.45
2023-02-05T03:09:51.180Z,8.82
2023-02-05T03:12:21.121Z,8.68
2023-02-05T03:14:50.235Z,8.32
2023-02-05T03:17:20.505Z,8.65
2023-02-05T03:19:58.078Z,8.38
2023-02-05T03:22:27.464Z,9.70
2023-02-05T03:24:55.997Z,9.90
2023-02-05T03:27:24.956Z,9.10
2023-02-05T03:29:54.852Z,8.77
2023-02-05T03:32:37.547Z,10.00
2023-02-05T03:35:24.826Z,8.80
2023-02-05T03:38:09.099Z,7.97
2023-02-05T03:40:46.818Z,8.55
2023-02-05T03:43:30.552Z,8.30
2023-02-05T03:46:04.420Z,9.18
2023-02-05T03:49:00.402Z,9.00
2023-02-05T03:51:37.008Z,7.68
2023-02-05T03:54:15.966Z,7.90
2023-02-05T03:56:56.292Z,7.60
2023-02-05T03:59:27.233Z,8.50
2023-02-05T04:01:57.180Z,8.80
2023-02-05T04:04:28.159Z,8.82
2023-02-05T04:06:58.832Z,8.05
2023-02-05T04:09:27.731Z,7.32
2023-02-05T04:11:58.145Z,7.60
2023-02-05T04:14:27.337Z,8.25
2023-02-05T04:16:56.285Z,8.00
2023-02-05T04:19:56.921Z,7.60
2023-02-05T04:22:56.289Z,8.85
2023-02-05T04:25:27.494Z,7.63
2023-02-05T04:28:01.916Z,7.57
2023-02-05T04:30:33.815Z,7.82
2023-02-05T04:33:03.390Z,7.07
2023-02-05T04:35:32.908Z,8.20
2023-02-05T04:38:01.840Z,8.25
2023-02-05T04:40:31.939Z,8.18
2023-02-05T04:43:00.357Z,7.97
2023-02-05T04:45:31.470Z,9.07
2023-02-05T04:48:00.432Z,8.90
2023-02-05T04:50:29.040Z,7.72
2023-02-05T04:52:57.656Z,8.90
2023-02-05T04:55:26.406Z,8.48
2023-02-05T04:58:39.241Z,7.88
2023-02-05T05:01:13.830Z,7.40
2023-02-05T05:03:42.480Z,7.70
2023-02-05T05:06:30.889Z,8.00
2023-02-05T05:08:59.247Z,8.10
2023-02-05T05:11:27.607Z,8.40
2023-02-05T05:13:56.353Z,7.45
2023-02-05T05:16:26.237Z,7.78
2023-02-05T05:18:54.899Z,8.18
2023-02-05T05:21:23.168Z,7.80
2023-02-05T05:23:51.637Z,9.45
2023-02-05T05:26:20.187Z,8.18
2023-02-05T05:28:49.020Z,8.80
2023-02-05T05:31:19.740Z,7.50
2023-02-05T05:33:49.771Z,6.97
2023-02-05T05:36:19.080Z,7.55
2023-02-05T05:38:47.529Z,7.75
2023-02-05T05:41:39.071Z,7.30
2023-02-05T05:44:07.831Z,8.98
2023-02-05T05:46:37.477Z,8.20
2023-02-05T05:49:07.346Z,7.95
2023-02-05T05:51:35.707Z,7.85
2023-02-05T05:54:04.305Z,8.85
2023-02-05T05:56:33.214Z,7.72
2023-02-05T05:59:02.121Z,7.55
2023-02-05T06:01:31.183Z,8.68
2023-02-05T06:03:59.440Z,9.82
2023-02-05T06:06:29.258Z,9.23
2023-02-05T06:08:57.676Z,8.38
2023-02-05T06:11:26.032Z,9.32
2023-02-05T06:13:54.309Z,8.30
2023-02-05T06:16:22.689Z,9.13
2023-02-05T06:18:51.135Z,7.35
2023-02-05T06:21:19.800Z,7.60
2023-02-05T06:24:04.612Z,8.93
2023-02-05T06:26:35.887Z,7.53
2023-02-05T06:29:04.345Z,8.32
2023-02-05T06:31:33.105Z,9.85
2023-02-05T06:34:02.558Z,8.40
2023-02-05T06:36:38.805Z,8.60
2023-02-05T06:39:08.804Z,8.15
2023-02-05T06:41:37.623Z,8.20
2023-02-05T06:44:06.273Z,9.60
2023-02-05T06:46:34.901Z,9.77
2023-02-05T06:49:03.324Z,9.80
2023-02-05T06:51:31.635Z,9.43
2023-02-05T06:54:01.666Z,9.45
2023-02-05T06:56:32.096Z,8.90
2023-02-05T06:59:01.470Z,8.77
2023-02-05T07:01:29.767Z,9.43
2023-02-05T07:03:59.115Z,10.05
2023-02-05T07:06:29.085Z,9.02
2023-02-05T07:08:59.453Z,8.13
2023-02-05T07:11:27.920Z,9.48
2023-02-05T07:13:58.379Z,9.32
2023-02-05T07:16:27.596Z,9.35
2023-02-05T07:18:56.397Z,9.23
2023-02-05T07:21:24.945Z,8.15
2023-02-05T07:23:53.263Z,7.68
2023-02-05T07:26:22.029Z,8.30
2023-02-05T07:28:50.361Z,9.50
2023-02-05T07:31:21.561Z,9.23
2023-02-05T07:33:50.412Z,9.60
2023-02-05T07:36:19.819Z,9.40
2023-02-05T07:38:49.138Z,9.63
2023-02-05T07:41:18.628Z,9.38
2023-02-05T07:43:47.212Z,9.55
2023-02-05T07:46:16.477Z,8.45
2023-02-05T07:55:37.760Z,8.13
2023-02-05T07:58:06.542Z,10.07
2023-02-05T08:00:35.114Z,9.63
2023-02-05T08:03:03.546Z,8.75
2023-02-05T08:05:32.453Z,8.65
2023-02-05T08:08:01.013Z,10.38
2023-02-05T08:10:29.355Z,9.98
2023-02-05T08:12:59.506Z,11.13
2023-02-05T08:15:28.252Z,10.90
2023-02-05T08:17:57.909Z,10.25
2023-02-05T08:20:26.229Z,10.13
2023-02-05T08:22:54.673Z,9.70
2023-02-05T08:25:23.010Z,8.85
2023-02-05T08:27:51.755Z,11.13
2023-02-05T08:30:22.199Z,10.93
2023-02-05T08:32:51.263Z,9.75
2023-02-05T08:35:19.898Z,10.88
2023-02-05T08:37:48.654Z,10.95
2023-02-05T08:40:17.090Z,10.30
2023-02-05T08:42:46.762Z,9.65
2023-02-05T08:45:15.223Z,8.52
2023-02-05T08:47:45.054Z,8.30
2023-02-05T08:50:13.451Z,10.50
2023-02-05T08:52:42.148Z,10.05
2023-02-05T08:55:10.552Z,9.98
2023-02-05T08:57:38.872Z,9.90
2023-02-05T09:00:08.750Z,9.32
2023-02-05T09:02:37.110Z,8.88
2023-02-05T09:05:09.374Z,8.95
2023-02-05T09:07:38.755Z,9.43
2023-02-05T09:10:09.599Z,8.90
2023-02-05T09:12:38.308Z,10.27
2023-02-05T09:15:08.261Z,9.82
2023-02-05T09:17:36.714Z,9.18
2023-02-05T09:20:07.738Z,8.80
2023-02-05T09:22:36.145Z,8.90
2023-02-05T09:25:05.070Z,9.00
2023-02-05T09:27:34.231Z,9.38
2023-02-05T09:30:02.731Z,8.82
2023-02-05T09:32:31.396Z,9.75
2023-02-05T09:34:59.871Z,9.52
2023-02-05T09:41:04.785Z,10.27
2023-02-05T09:43:46.360Z,10.43
2023-02-05T09:46:20.283Z,10.20
2023-02-05T09:48:52.834Z,10.93
2023-02-05T09:51:25.362Z,9.88
2023-02-05T09:53:58.868Z,9.98
2023-02-05T09:56:30.708Z,11.38
2023-02-05T09:59:00.096Z,9.95
2023-02-05T10:01:42.239Z,9.55
2023-02-05T10:04:11.601Z,9.73
2023-02-05T10:07:15.314Z,10.20
2023-02-05T10:10:04.427Z,9.20
2023-02-05T10:12:49.755Z,8.75
2023-02-05T10:15:43.300Z,9.05
2023-02-05T10:18:22.478Z,9.05
2023-02-05T10:21:07.745Z,8.32
2023-02-05T10:23:57.189Z,8.02
2023-02-05T10:26:34.210Z,9.05
2023-02-05T10:29:17.221Z,8.20
2023-02-05T10:31:53.826Z,8.90
2023-02-05T10:34:47.974Z,8.63
2023-02-05T10:37:19.680Z,8.80
2023-02-05T10:39:49.550Z,9.77
2023-02-05T10:42:32.028Z,11.43
2023-02-05T10:45:11.428Z,10.18
2023-02-05T10:47:50.866Z,9.48
2023-02-05T10:50:27.111Z,11.73
2023-02-05T10:52:57.320Z,10.70
2023-02-05T10:55:29.182Z,9.85
2023-02-05T10:57:57.998Z,9.65
2023-02-05T11:01:16.170Z,9.45
2023-02-05T11:03:57.418Z,9.40
2023-02-05T11:06:40.749Z,8.88
2023-02-05T11:09:31.339Z,10.25
2023-02-05T11:12:02.135Z,9.25
2023-02-05T11:14:37.424Z,9.68
2023-02-05T11:17:20.221Z,9.43
2023-02-05T11:19:59.431Z,9.50
2023-02-05T11:22:34.795Z,10.07
2023-02-05T11:25:20.915Z,9.48
2023-02-05T11:27:54.961Z,9.32
2023-02-05T11:31:04.677Z,9.18
2023-02-05T11:33:32.850Z,8.30
2023-02-05T11:36:19.543Z,8.90
2023-02-05T11:39:06.185Z,9.18
2023-02-05T11:41:49.280Z,9.93
2023-02-05T11:44:24.362Z,9.55
2023-02-05T11:50:31.568Z,9.98
2023-02-05T11:53:21.474Z,10.35
2023-02-05T11:56:00.778Z,9.13
2023-02-05T12:01:34.508Z,10.63
2023-02-05T12:05:01.492Z,9.75
2023-02-05T12:12:04.064Z,10.52
2023-02-05T12:14:46.052Z,10.38
2023-02-05T12:22:36.562Z,9.93
2023-02-05T12:37:06.570Z,8.40
2023-02-05T12:41:12.829Z,8.57
2023-02-05T12:43:47.336Z,7.13
2023-02-05T12:47:39.446Z,8.05
2023-02-05T12:54:44.832Z,6.53
2023-02-05T13:00:46.508Z,7.10
2023-02-05T13:03:53.649Z,7.28
2023-02-05T13:14:54.280Z,8.23
2023-02-05T13:22:32.858Z,8.88
2023-02-05T13:25:55.842Z,7.72
2023-02-05T13:58:55.651Z,8.32
2023-02-05T14:10:44.590Z,8.60
2023-02-05T14:41:09.790Z,6.82
2023-02-05T15:13:46.267Z,10.10
2023-02-05T16:02:22.791Z,15.13
2023-02-05T16:05:20.087Z,14.82
2023-02-05T16:11:44.668Z,16.60
2023-02-05T16:17:37.839Z,15.77
2023-02-05T16:21:16.583Z,15.20
2023-02-05T16:24:35.479Z,11.68
2023-02-05T16:27:22.080Z,11.43
2023-02-05T16:30:11.184Z,13.85
2023-02-05T16:33:09.446Z,13.00
2023-02-05T16:35:58.474Z,12.82
2023-02-05T16:38:35.063Z,13.40
2023-02-05T16:41:30.468Z,14.80
2023-02-05T16:44:13.729Z,14.45
2023-02-05T16:47:21.702Z,12.80
2023-02-05T16:49:56.492Z,14.45
2023-02-05T16:52:41.337Z,14.52
2023-02-05T16:55:56.428Z,13.85
2023-02-05T16:58:34.118Z,13.43
2023-02-05T17:01:31.220Z,12.07
2023-02-05T17:04:14.219Z,11.15
2023-02-05T17:06:49.075Z,11.75
2023-02-05T17:09:46.337Z,9.27
2023-02-05T17:12:41.547Z,11.38
2023-02-05T17:15:48.783Z,11.60
2023-02-05T17:18:29.477Z,11.00
2023-02-05T17:21:31.218Z,12.38
2023-02-05T17:24:40.407Z,11.85
2023-02-05T17:31:09.288Z,10.80
2023-02-05T17:33:59.314Z,12.75
2023-02-05T17:36:37.636Z,13.43
2023-02-05T17:39:28.268Z,13.23
2023-02-05T17:42:07.955Z,13.63
2023-02-05T17:44:43.518Z,14.52
2023-02-05T17:47:32.210Z,14.05
2023-02-05T17:50:17.670Z,14.15
2023-02-05T17:53:05.420Z,14.13
2023-02-05T17:55:39.861Z,12.20
2023-02-05T17:58:12.371Z,14.88
2023-02-05T18:00:43.007Z,18.23
2023-02-05T18:03:15.671Z,19.42
2023-02-05T18:05:49.897Z,15.45
2023-02-05T18:08:21.099Z,18.20
2023-02-05T18:11:00.325Z,16.45
2023-02-05T18:13:33.097Z,15.85
2023-02-05T18:16:04.757Z,17.88
2023-02-05T18:18:39.607Z,17.27
2023-02-05T18:21:22.790Z,16.33
2023-02-05T18:23:52.835Z,17.38
2023-02-05T18:26:22.483Z,15.63
2023-02-05T18:28:51.842Z,15.65
2023-02-05T18:31:29.662Z,14.90
2023-02-05T18:34:00.524Z,16.00
2023-02-05T18:36:29.267Z,15.43
2023-02-05T18:39:01.573Z,16.38
2023-02-05T18:41:31.698Z,14.48
2023-02-05T18:44:04.412Z,15.68
2023-02-05T18:46:39.344Z,14.70
2023-02-05T18:49:11.760Z,14.15
2023-02-05T18:51:44.212Z,14.05
2023-02-05T18:54:14.459Z,13.80
2023-02-05T18:56:45.117Z,15.90
2023-02-05T18:59:23.826Z,15.93
2023-02-05T19:01:55.149Z,14.85
2023-02-05T19:04:33.176Z,15.10
2023-02-05T19:07:04.511Z,14.68
2023-02-05T19:09:33.021Z,13.20
2023-02-05T19:12:03.769Z,14.13
2023-02-05T19:14:32.393Z,13.15
2023-02-05T19:17:01.584Z,15.68
2023-02-05T19:19:31.936Z,16.17
2023-02-05T19:22:02.525Z,15.38
2023-02-05T19:24:32.955Z,17.73
2023-02-05T19:27:01.925Z,16.38
2023-02-05T19:29:38.337Z,16.48
2023-02-05T19:32:10.934Z,15.80
2023-02-05T19:34:45.273Z,14.75
2023-02-05T19:37:16.285Z,15.25
2023-02-05T19:39:47.637Z,17.00
2023-02-05T19:42:18.614Z,15.57
2023-02-05T19:44:47.300Z,13.75
2023-02-05T19:47:16.550Z,15.65
2023-02-05T19:49:58.811Z,16.05
2023-02-05T19:53:29.342Z,16.17
2023-02-05T20:02:27.982Z,15.05
2023-02-05T23:08:26.131Z,20.55
2023-02-05T23:11:14.424Z,21.25
2023-02-05T23:13:48.830Z,20.92
2023-02-05T23:16:22.616Z,21.05
2023-02-05T23:19:11.826Z,21.45
2023-02-05T23:21:48.683Z,20.30
2023-02-05T23:24:24.317Z,21.70
2023-02-05T23:26:53.775Z,18.38
2023-02-05T23:29:25.160Z,21.75
2023-02-05T23:32:03.914Z,21.55
2023-02-05T23:34:33.057Z,20.77
2023-02-05T23:37:02.141Z,21.30
2023-02-05T23:39:35.514Z,21.77
2023-02-05T23:42:05.885Z,21.98
2023-02-05T23:44:34.901Z,21.35
2023-02-05T23:47:03.786Z,23.65
2023-02-05T23:49:32.456Z,19.70
2023-02-05T23:52:01.052Z,23.88
2023-02-05T23:54:29.862Z,21.98
2023-02-05T23:57:00.059Z,21.70
2023-02-05T23:59:28.893Z,20.88
